createdAt,value
2023-01-27T00:00:43.656Z,1014.30
2023-01-27T00:01:43.620Z,1014.24
2023-01-27T00:02:43.757Z,1014.21
2023-01-27T00:03:43.731Z,1014.26
2023-01-27T00:04:43.660Z,1014.25
2023-01-27T00:05:43.585Z,1014.24
2023-01-27T00:06:43.611Z,1014.24
2023-01-27T00:07:43.557Z,1014.20
2023-01-27T00:08:43.559Z,1014.26
2023-01-27T00:09:43.577Z,1014.26
2023-01-27T00:10:43.540Z,1014.28
2023-01-27T00:11:43.514Z,1014.26
2023-01-27T00:12:43.490Z,1014.30
2023-01-27T00:13:43.474Z,1014.30
2023-01-27T00:14:43.522Z,1014.30
2023-01-27T00:15:43.534Z,1014.28
2023-01-27T00:16:43.455Z,1014.29
2023-01-27T00:17:43.434Z,1014.28
2023-01-27T00:18:43.480Z,1014.26
2023-01-27T00:19:43.473Z,1014.26
2023-01-27T00:20:43.426Z,1014.25
2023-01-27T00:21:43.407Z,1014.17
2023-01-27T00:22:43.404Z,1014.18
2023-01-27T00:23:43.383Z,1014.23
2023-01-27T00:24:43.415Z,1014.16
2023-01-27T00:25:43.353Z,1014.21
2023-01-27T00:26:43.355Z,1014.23
2023-01-27T00:27:43.345Z,1014.18
2023-01-27T00:28:43.324Z,1014.17
2023-01-27T00:29:43.352Z,1014.16
2023-01-27T00:30:43.322Z,1014.17
2023-01-27T00:31:43.290Z,1014.16
2023-01-27T00:32:43.294Z,1014.18
2023-01-27T00:33:43.257Z,1014.16
2023-01-27T00:34:43.303Z,1014.20
2023-01-27T00:35:43.244Z,1014.19
2023-01-27T00:36:43.255Z,1014.14
2023-01-27T00:37:43.225Z,1014.22
2023-01-27T00:38:43.219Z,1014.20
2023-01-27T00:39:43.236Z,1014.16
2023-01-27T00:40:43.203Z,1014.15
2023-01-27T00:41:43.165Z,1014.18
2023-01-27T00:42:43.165Z,1014.18
2023-01-27T00:43:43.144Z,1014.16
2023-01-27T00:44:43.180Z,1014.14
2023-01-27T00:45:43.122Z,1014.17
2023-01-27T00:46:43.232Z,1014.18
2023-01-27T00:47:43.098Z,1014.18
2023-01-27T00:48:43.114Z,1014.18
2023-01-27T00:49:43.148Z,1014.12
2023-01-27T00:50:43.126Z,1014.10
2023-01-27T00:51:43.064Z,1014.16
2023-01-27T00:52:43.035Z,1014.14
2023-01-27T00:53:43.048Z,1014.13
2023-01-27T00:54:43.079Z,1014.10
2023-01-27T00:55:43.023Z,1014.13
2023-01-27T00:56:43.009Z,1014.19
2023-01-27T00:57:42.997Z,1014.17
2023-01-27T00:58:42.987Z,1014.21
2023-01-27T00:59:43.021Z,1014.24
2023-01-27T01:00:42.969Z,1014.21
2023-01-27T01:01:42.980Z,1014.19
2023-01-27T01:02:42.972Z,1014.21
2023-01-27T01:03:42.919Z,1014.25
2023-01-27T01:04:42.963Z,1014.25
2023-01-27T01:05:42.901Z,1014.23
2023-01-27T01:06:42.917Z,1014.24
2023-01-27T01:07:42.890Z,1014.27
2023-01-27T01:08:42.870Z,1014.28
2023-01-27T01:09:42.894Z,1014.22
2023-01-27T01:10:42.836Z,1014.25
2023-01-27T01:11:42.861Z,1014.27
2023-01-27T01:12:42.826Z,1014.23
2023-01-27T01:13:42.828Z,1014.24
2023-01-27T01:14:42.862Z,1014.22
2023-01-27T01:15:42.802Z,1014.21
2023-01-27T01:16:42.783Z,1014.22
2023-01-27T01:17:42.754Z,1014.19
2023-01-27T01:18:42.770Z,1014.18
2023-01-27T01:19:42.793Z,1014.18
2023-01-27T01:20:42.749Z,1014.21
2023-01-27T01:21:42.715Z,1014.23
2023-01-27T01:22:42.719Z,1014.23
2023-01-27T01:23:42.713Z,1014.22
2023-01-27T01:24:42.737Z,1014.24
2023-01-27T01:25:42.718Z,1014.23
2023-01-27T01:26:42.698Z,1014.26
2023-01-27T01:27:42.662Z,1014.29
2023-01-27T01:28:42.674Z,1014.27
2023-01-27T01:29:42.681Z,1014.27
2023-01-27T01:30:42.686Z,1014.28
2023-01-27T01:31:42.686Z,1014.27
2023-01-27T01:32:42.607Z,1014.30
2023-01-27T01:33:42.585Z,1014.30
2023-01-27T01:34:42.622Z,1014.30
2023-01-27T01:35:42.574Z,1014.34
2023-01-27T01:36:42.541Z,1014.33
2023-01-27T01:37:42.563Z,1014.37
2023-01-27T01:38:42.531Z,1014.35
2023-01-27T01:39:42.579Z,1014.36
2023-01-27T01:40:42.515Z,1014.34
2023-01-27T01:41:42.510Z,1014.34
2023-01-27T01:42:42.485Z,1014.32
2023-01-27T01:43:42.511Z,1014.30
2023-01-27T01:44:42.523Z,1014.31
2023-01-27T01:45:42.463Z,1014.31
2023-01-27T01:46:42.474Z,1014.32
2023-01-27T01:47:42.432Z,1014.29
2023-01-27T01:48:42.450Z,1014.33
2023-01-27T01:49:42.471Z,1014.32
2023-01-27T01:50:42.432Z,1014.33
2023-01-27T01:51:42.386Z,1014.31
2023-01-27T01:52:42.388Z,1014.30
2023-01-27T01:53:42.367Z,1014.30
2023-01-27T01:54:42.396Z,1014.26
2023-01-27T01:55:42.372Z,1014.29
2023-01-27T01:56:42.359Z,1014.27
2023-01-27T01:57:42.329Z,1014.34
2023-01-27T01:59:42.324Z,1014.35
2023-01-27T02:00:42.323Z,1014.34
2023-01-27T02:01:42.308Z,1014.38
2023-01-27T02:02:42.308Z,1014.37
2023-01-27T02:03:42.252Z,1014.39
2023-01-27T02:04:42.272Z,1014.42
2023-01-27T02:05:42.221Z,1014.38
2023-01-27T02:06:42.226Z,1014.43
2023-01-27T02:07:42.224Z,1014.42
2023-01-27T02:08:42.214Z,1014.41
2023-01-27T02:09:42.250Z,1014.44
2023-01-27T02:10:42.168Z,1014.44
2023-01-27T02:11:42.192Z,1014.43
2023-01-27T02:12:42.181Z,1014.48
2023-01-27T02:13:42.177Z,1014.43
2023-01-27T02:14:42.195Z,1014.43
2023-01-27T02:15:42.131Z,1014.44
2023-01-27T02:16:42.156Z,1014.44
2023-01-27T02:17:42.133Z,1014.43
2023-01-27T02:18:42.089Z,1014.42
2023-01-27T02:19:42.122Z,1014.48
2023-01-27T02:20:42.061Z,1014.41
2023-01-27T02:21:42.069Z,1014.35
2023-01-27T02:22:42.053Z,1014.37
2023-01-27T02:23:42.034Z,1014.41
2023-01-27T02:24:42.054Z,1014.31
2023-01-27T02:25:42.007Z,1014.29
2023-01-27T02:26:42.018Z,1014.29
2023-01-27T02:27:42.009Z,1014.28
2023-01-27T02:28:41.982Z,1014.33
2023-01-27T02:29:42.027Z,1014.28
2023-01-27T02:30:42.082Z,1014.25
2023-01-27T02:31:42.020Z,1014.30
2023-01-27T02:32:41.919Z,1014.28
2023-01-27T02:33:41.914Z,1014.28
2023-01-27T02:34:41.959Z,1014.31
2023-01-27T02:35:41.924Z,1014.32
2023-01-27T02:36:41.882Z,1014.37
2023-01-27T02:37:41.894Z,1014.34
2023-01-27T02:38:41.870Z,1014.40
2023-01-27T02:39:41.911Z,1014.41
2023-01-27T02:40:41.841Z,1014.43
2023-01-27T02:41:41.828Z,1014.42
2023-01-27T02:42:41.817Z,1014.44
2023-01-27T02:43:41.807Z,1014.47
2023-01-27T02:44:41.840Z,1014.46
2023-01-27T02:45:41.789Z,1014.47
2023-01-27T02:46:41.783Z,1014.44
2023-01-27T02:47:41.772Z,1014.45
2023-01-27T02:48:41.766Z,1014.44
2023-01-27T02:49:41.782Z,1014.47
2023-01-27T02:50:41.736Z,1014.47
2023-01-27T02:51:41.729Z,1014.47
2023-01-27T02:52:41.703Z,1014.49
2023-01-27T02:53:41.706Z,1014.45
2023-01-27T02:54:41.743Z,1014.46
2023-01-27T02:55:41.683Z,1014.47
2023-01-27T02:56:41.698Z,1014.48
2023-01-27T02:57:41.651Z,1014.50
2023-01-27T02:58:41.614Z,1014.48
2023-01-27T02:59:41.680Z,1014.47
2023-01-27T03:00:41.603Z,1014.51
2023-01-27T03:01:41.626Z,1014.46
2023-01-27T03:02:41.635Z,1014.42
2023-01-27T03:03:41.588Z,1014.46
2023-01-27T03:04:41.583Z,1014.47
2023-01-27T03:05:41.605Z,1014.47
2023-01-27T03:06:41.543Z,1014.56
2023-01-27T03:07:41.549Z,1014.58
2023-01-27T03:08:41.528Z,1014.57
2023-01-27T03:09:41.533Z,1014.59
2023-01-27T03:10:41.551Z,1014.56
2023-01-27T03:11:41.526Z,1014.60
2023-01-27T03:12:41.485Z,1014.60
2023-01-27T03:13:41.457Z,1014.64
2023-01-27T03:14:41.456Z,1014.66
2023-01-27T03:15:41.593Z,1014.59
2023-01-27T03:16:41.448Z,1014.60
2023-01-27T03:17:41.427Z,1014.62
2023-01-27T03:18:41.427Z,1014.64
2023-01-27T03:19:41.400Z,1014.60
2023-01-27T03:20:41.461Z,1014.63
2023-01-27T03:21:41.404Z,1014.62
2023-01-27T03:22:41.365Z,1014.62
2023-01-27T03:23:41.361Z,1014.67
2023-01-27T03:24:41.337Z,1014.70
2023-01-27T03:25:41.391Z,1014.68
2023-01-27T03:26:41.313Z,1014.67
2023-01-27T03:27:41.301Z,1014.70
2023-01-27T03:28:41.287Z,1014.66
2023-01-27T03:29:41.281Z,1014.70
2023-01-27T03:30:41.436Z,1014.74
2023-01-27T03:31:41.309Z,1014.74
2023-01-27T03:32:41.259Z,1014.74
2023-01-27T03:33:41.235Z,1014.76
2023-01-27T03:34:41.234Z,1014.76
2023-01-27T03:35:41.290Z,1014.79
2023-01-27T03:36:41.221Z,1014.76
2023-01-27T03:37:41.210Z,1014.71
2023-01-27T03:38:41.169Z,1014.74
2023-01-27T03:39:41.188Z,1014.79
2023-01-27T03:40:41.229Z,1014.80
2023-01-27T03:41:41.163Z,1014.78
2023-01-27T03:42:41.173Z,1014.76
2023-01-27T03:43:41.134Z,1014.75
2023-01-27T03:44:41.125Z,1014.80
2023-01-27T03:45:41.178Z,1014.74
2023-01-27T03:46:41.103Z,1014.75
2023-01-27T03:47:41.088Z,1014.77
2023-01-27T03:48:41.085Z,1014.72
2023-01-27T03:49:41.078Z,1014.75
2023-01-27T03:50:41.104Z,1014.75
2023-01-27T03:51:41.042Z,1014.74
2023-01-27T03:52:41.020Z,1014.76
2023-01-27T03:53:41.020Z,1014.81
2023-01-27T03:54:40.991Z,1014.74
2023-01-27T03:55:41.034Z,1014.74
2023-01-27T03:56:40.972Z,1014.71
2023-01-27T03:57:40.962Z,1014.70
2023-01-27T03:58:40.968Z,1014.71
2023-01-27T03:59:40.943Z,1014.67
2023-01-27T04:00:40.975Z,1014.66
2023-01-27T04:01:40.985Z,1014.69
2023-01-27T04:02:40.973Z,1014.71
2023-01-27T04:03:40.931Z,1014.69
2023-01-27T04:04:40.904Z,1014.72
2023-01-27T04:05:40.913Z,1014.70
2023-01-27T04:06:40.866Z,1014.71
2023-01-27T04:07:40.865Z,1014.71
2023-01-27T04:08:40.840Z,1014.71
2023-01-27T04:09:40.848Z,1014.67
2023-01-27T04:10:40.867Z,1014.68
2023-01-27T04:11:40.802Z,1014.69
2023-01-27T04:12:40.796Z,1014.65
2023-01-27T04:13:40.798Z,1014.71
2023-01-27T04:14:40.787Z,1014.69
2023-01-27T04:15:40.843Z,1014.70
2023-01-27T04:16:40.759Z,1014.64
2023-01-27T04:17:40.752Z,1014.69
2023-01-27T04:18:40.747Z,1014.68
2023-01-27T04:19:40.740Z,1014.72
2023-01-27T04:20:40.763Z,1014.67
2023-01-27T04:21:40.678Z,1014.65
2023-01-27T04:22:40.668Z,1014.68
2023-01-27T04:23:40.669Z,1014.64
2023-01-27T04:24:40.664Z,1014.66
2023-01-27T04:25:40.708Z,1014.68
2023-01-27T04:26:40.667Z,1014.69
2023-01-27T04:27:40.649Z,1014.65
2023-01-27T04:28:44.902Z,1014.72
2023-01-27T04:29:40.611Z,1014.73
2023-01-27T04:30:40.672Z,1014.66
2023-01-27T04:31:40.645Z,1014.68
2023-01-27T04:32:40.557Z,1014.72
2023-01-27T04:33:40.565Z,1014.74
2023-01-27T04:34:40.535Z,1014.76
2023-01-27T04:35:40.580Z,1014.75
2023-01-27T04:36:40.517Z,1014.79
2023-01-27T04:37:40.537Z,1014.76
2023-01-27T04:38:40.518Z,1014.79
2023-01-27T04:39:40.497Z,1014.72
2023-01-27T04:40:40.512Z,1014.79
2023-01-27T04:41:40.472Z,1014.79
2023-01-27T04:42:40.479Z,1014.76
2023-01-27T04:43:40.453Z,1014.80
2023-01-27T04:44:40.432Z,1014.82
2023-01-27T04:45:40.490Z,1014.78
2023-01-27T04:46:40.401Z,1014.83
2023-01-27T04:47:40.391Z,1014.81
2023-01-27T04:48:40.372Z,1014.79
2023-01-27T04:49:40.375Z,1014.81
2023-01-27T04:50:40.545Z,1014.79
2023-01-27T04:51:40.387Z,1014.82
2023-01-27T04:52:40.340Z,1014.84
2023-01-27T04:53:40.323Z,1014.86
2023-01-27T04:54:40.321Z,1014.88
2023-01-27T04:55:40.370Z,1014.91
2023-01-27T04:56:40.315Z,1014.91
2023-01-27T04:57:40.289Z,1014.90
2023-01-27T04:58:40.280Z,1014.93
2023-01-27T04:59:40.283Z,1014.90
2023-01-27T05:00:40.308Z,1014.88
2023-01-27T05:01:40.303Z,1014.85
2023-01-27T05:02:40.248Z,1014.86
2023-01-27T05:03:40.227Z,1014.89
2023-01-27T05:04:40.198Z,1014.89
2023-01-27T05:05:40.260Z,1014.89
2023-01-27T05:06:40.180Z,1014.92
2023-01-27T05:07:40.168Z,1014.94
2023-01-27T05:08:40.166Z,1014.98
2023-01-27T05:09:40.147Z,1014.96
2023-01-27T05:10:40.170Z,1014.93
2023-01-27T05:11:40.154Z,1014.92
2023-01-27T05:12:40.162Z,1014.88
2023-01-27T05:13:40.113Z,1014.87
2023-01-27T05:15:49.555Z,1014.92
2023-01-27T05:16:49.557Z,1014.94
2023-01-27T05:17:49.478Z,1014.93
2023-01-27T05:18:49.493Z,1014.96
2023-01-27T05:19:49.462Z,1014.98
2023-01-27T05:20:51.486Z,1014.94
2023-01-27T05:21:49.438Z,1014.99
2023-01-27T05:22:49.397Z,1015.03
2023-01-27T05:23:49.470Z,1015.07
2023-01-27T05:24:49.403Z,1015.06
2023-01-27T05:25:49.456Z,1015.12
2023-01-27T05:26:49.376Z,1015.10
2023-01-27T05:27:49.365Z,1015.11
2023-01-27T05:28:49.332Z,1015.08
2023-01-27T05:29:49.339Z,1015.08
2023-01-27T05:30:49.466Z,1015.03
2023-01-27T05:31:49.335Z,1015.12
2023-01-27T05:32:49.310Z,1015.13
2023-01-27T05:33:49.304Z,1015.14
2023-01-27T05:34:49.281Z,1015.13
2023-01-27T05:35:49.309Z,1015.20
2023-01-27T05:36:49.294Z,1015.19
2023-01-27T05:37:49.250Z,1015.24
2023-01-27T05:38:49.274Z,1015.19
2023-01-27T05:39:49.226Z,1015.23
2023-01-27T05:40:49.282Z,1015.18
2023-01-27T05:41:49.213Z,1015.20
2023-01-27T05:42:49.179Z,1015.17
2023-01-27T05:43:49.156Z,1015.25
2023-01-27T05:44:50.536Z,1015.24
2023-01-27T05:45:49.188Z,1015.26
2023-01-27T05:46:49.218Z,1015.24
2023-01-27T05:47:49.119Z,1015.26
2023-01-27T05:48:49.124Z,1015.24
2023-01-27T05:49:49.107Z,1015.24
2023-01-27T05:50:49.128Z,1015.27
2023-01-27T05:51:49.087Z,1015.22
2023-01-27T05:52:49.071Z,1015.23
2023-01-27T05:53:49.045Z,1015.25
2023-01-27T05:54:49.044Z,1015.24
2023-01-27T05:55:49.085Z,1015.23
2023-01-27T05:56:49.029Z,1015.21
2023-01-27T05:57:49.039Z,1015.17
2023-01-27T05:58:49.021Z,1015.17
2023-01-27T05:59:49.006Z,1015.16
2023-01-27T06:00:48.977Z,1015.20
2023-01-27T06:01:49.025Z,1015.13
2023-01-27T06:02:49.003Z,1015.15
2023-01-27T06:03:48.938Z,1015.19
2023-01-27T06:04:48.929Z,1015.19
2023-01-27T06:05:48.918Z,1015.19
2023-01-27T06:06:48.966Z,1015.16
2023-01-27T06:07:48.908Z,1015.21
2023-01-27T06:08:48.879Z,1015.22
2023-01-27T06:09:48.877Z,1015.19
2023-01-27T06:10:48.858Z,1015.23
2023-01-27T06:11:48.900Z,1015.27
2023-01-27T06:12:48.851Z,1015.33
2023-01-27T06:13:48.838Z,1015.33
2023-01-27T06:14:48.819Z,1015.29
2023-01-27T06:15:48.816Z,1015.32
2023-01-27T06:16:48.893Z,1015.33
2023-01-27T06:17:48.804Z,1015.33
2023-01-27T06:18:48.755Z,1015.31
2023-01-27T06:19:48.769Z,1015.32
2023-01-27T06:20:48.772Z,1015.29
2023-01-27T06:21:48.780Z,1015.27
2023-01-27T06:22:48.735Z,1015.33
2023-01-27T06:23:48.752Z,1015.33
2023-01-27T06:24:48.695Z,1015.33
2023-01-27T06:25:48.695Z,1015.34
2023-01-27T06:26:48.717Z,1015.34
2023-01-27T06:27:48.674Z,1015.39
2023-01-27T06:28:48.669Z,1015.37
2023-01-27T06:29:48.653Z,1015.38
2023-01-27T06:30:48.620Z,1015.40
2023-01-27T06:31:48.696Z,1015.42
2023-01-27T06:32:48.628Z,1015.41
2023-01-27T06:33:48.612Z,1015.38
2023-01-27T06:34:48.590Z,1015.41
2023-01-27T06:35:48.603Z,1015.40
2023-01-27T06:36:48.622Z,1015.46
2023-01-27T06:37:48.540Z,1015.40
2023-01-27T06:38:48.537Z,1015.46
2023-01-27T06:39:48.527Z,1015.45
2023-01-27T06:40:48.519Z,1015.45
2023-01-27T06:41:48.572Z,1015.44
2023-01-27T06:42:48.493Z,1015.44
2023-01-27T06:43:48.525Z,1015.43
2023-01-27T06:44:48.466Z,1015.50
2023-01-27T06:45:48.474Z,1015.41
2023-01-27T06:46:48.483Z,1015.41
2023-01-27T06:47:48.445Z,1015.42
2023-01-27T06:48:48.455Z,1015.45
2023-01-27T06:49:48.428Z,1015.44
2023-01-27T06:50:48.406Z,1015.47
2023-01-27T06:51:48.449Z,1015.48
2023-01-27T06:52:48.378Z,1015.50
2023-01-27T06:53:48.373Z,1015.49
2023-01-27T06:54:48.362Z,1015.45
2023-01-27T06:55:48.340Z,1015.51
2023-01-27T06:56:48.374Z,1015.56
2023-01-27T06:57:48.352Z,1015.52
2023-01-27T06:58:48.318Z,1015.53
2023-01-27T06:59:48.282Z,1015.52
2023-01-27T07:00:48.286Z,1015.51
2023-01-27T07:01:48.386Z,1015.50
2023-01-27T07:02:48.338Z,1015.51
2023-01-27T07:03:48.269Z,1015.54
2023-01-27T07:04:48.236Z,1015.54
2023-01-27T07:05:48.266Z,1015.56
2023-01-27T07:06:48.254Z,1015.58
2023-01-27T07:07:48.203Z,1015.56
2023-01-27T07:08:48.221Z,1015.55
2023-01-27T07:09:52.637Z,1015.58
2023-01-27T07:10:48.215Z,1015.59
2023-01-27T07:11:48.217Z,1015.62
2023-01-27T07:12:48.160Z,1015.62
2023-01-27T07:13:48.154Z,1015.60
2023-01-27T07:14:48.118Z,1015.62
2023-01-27T07:15:48.125Z,1015.68
2023-01-27T07:16:48.172Z,1015.65
2023-01-27T07:17:48.073Z,1015.64
2023-01-27T07:18:48.101Z,1015.66
2023-01-27T07:19:48.086Z,1015.64
2023-01-27T07:20:48.060Z,1015.66
2023-01-27T07:21:48.136Z,1015.70
2023-01-27T07:22:48.044Z,1015.70
2023-01-27T07:23:48.050Z,1015.71
2023-01-27T07:24:48.019Z,1015.72
2023-01-27T07:25:48.037Z,1015.76
2023-01-27T07:26:48.016Z,1015.75
2023-01-27T07:27:47.989Z,1015.77
2023-01-27T07:28:47.982Z,1015.74
2023-01-27T07:29:47.967Z,1015.74
2023-01-27T07:30:47.948Z,1015.71
2023-01-27T07:31:48.113Z,1015.70
2023-01-27T07:32:47.914Z,1015.70
2023-01-27T07:33:47.911Z,1015.74
2023-01-27T07:34:47.895Z,1015.68
2023-01-27T07:35:47.880Z,1015.73
2023-01-27T07:36:47.948Z,1015.62
2023-01-27T07:37:47.881Z,1015.63
2023-01-27T07:38:47.843Z,1015.61
2023-01-27T07:39:47.841Z,1015.65
2023-01-27T07:40:47.822Z,1015.63
2023-01-27T07:41:47.857Z,1015.64
2023-01-27T07:42:47.786Z,1015.68
2023-01-27T07:43:47.778Z,1015.69
2023-01-27T07:44:47.777Z,1015.72
2023-01-27T07:45:47.880Z,1015.73
2023-01-27T07:46:47.806Z,1015.76
2023-01-27T07:47:47.758Z,1015.75
2023-01-27T07:48:47.722Z,1015.73
2023-01-27T07:49:47.723Z,1015.77
2023-01-27T07:50:47.696Z,1015.79
2023-01-27T07:51:47.736Z,1015.79
2023-01-27T07:52:47.695Z,1015.77
2023-01-27T07:53:47.687Z,1015.86
2023-01-27T07:54:47.663Z,1015.84
2023-01-27T07:55:47.668Z,1015.85
2023-01-27T07:56:47.678Z,1015.85
2023-01-27T07:57:47.620Z,1015.82
2023-01-27T07:58:47.629Z,1015.83
2023-01-27T07:59:47.622Z,1015.83
2023-01-27T08:00:47.605Z,1015.79
2023-01-27T08:01:48.375Z,1015.84
2023-01-27T08:02:47.544Z,1015.81
2023-01-27T08:03:47.544Z,1015.85
2023-01-27T08:04:53.270Z,1015.87
2023-01-27T08:05:48.545Z,1015.80
2023-01-27T08:06:47.587Z,1015.83
2023-01-27T08:07:47.512Z,1015.90
2023-01-27T08:08:47.524Z,1015.91
2023-01-27T08:09:47.501Z,1015.89
2023-01-27T08:10:47.510Z,1015.96
2023-01-27T08:11:47.511Z,1015.91
2023-01-27T08:12:47.475Z,1015.99
2023-01-27T08:13:47.452Z,1015.99
2023-01-27T08:14:47.444Z,1015.96
2023-01-27T08:15:47.437Z,1015.97
2023-01-27T08:16:47.515Z,1016.02
2023-01-27T08:17:47.391Z,1016.00
2023-01-27T08:18:47.409Z,1015.96
2023-01-27T08:19:47.382Z,1015.95
2023-01-27T08:20:47.372Z,1015.98
2023-01-27T08:21:47.400Z,1015.87
2023-01-27T08:22:47.384Z,1016.00
2023-01-27T08:23:47.331Z,1015.92
2023-01-27T08:24:47.325Z,1015.97
2023-01-27T08:25:47.322Z,1015.93
2023-01-27T08:26:47.348Z,1015.97
2023-01-27T08:27:47.290Z,1015.87
2023-01-27T08:28:47.281Z,1015.91
2023-01-27T08:29:47.231Z,1015.96
2023-01-27T08:30:47.242Z,1016.02
2023-01-27T08:31:47.351Z,1015.97
2023-01-27T08:32:47.246Z,1016.03
2023-01-27T08:33:47.205Z,1016.03
2023-01-27T08:34:47.228Z,1016.08
2023-01-27T08:35:47.196Z,1016.06
2023-01-27T08:36:47.232Z,1016.06
2023-01-27T08:37:48.326Z,1016.02
2023-01-27T08:38:47.158Z,1016.01
2023-01-27T08:39:47.147Z,1016.03
2023-01-27T08:40:47.132Z,1016.03
2023-01-27T08:41:47.165Z,1015.97
2023-01-27T08:42:47.109Z,1016.03
2023-01-27T08:43:47.147Z,1016.03
2023-01-27T08:44:47.101Z,1015.99
2023-01-27T08:45:47.118Z,1016.04
2023-01-27T08:46:47.106Z,1016.03
2023-01-27T08:47:47.060Z,1016.00
2023-01-27T08:48:47.065Z,1015.99
2023-01-27T08:49:47.034Z,1015.96
2023-01-27T08:50:47.033Z,1016.01
2023-01-27T08:51:47.068Z,1016.04
2023-01-27T08:52:46.989Z,1016.04
2023-01-27T08:53:46.990Z,1016.10
2023-01-27T08:54:46.976Z,1016.08
2023-01-27T08:55:46.989Z,1016.12
2023-01-27T08:56:46.983Z,1016.09
2023-01-27T08:57:46.929Z,1016.13
2023-01-27T08:58:46.925Z,1016.10
2023-01-27T08:59:46.915Z,1016.12
2023-01-27T09:00:46.908Z,1016.12
2023-01-27T09:01:46.942Z,1016.13
2023-01-27T09:02:46.928Z,1016.10
2023-01-27T09:03:46.872Z,1016.13
2023-01-27T09:04:46.904Z,1016.13
2023-01-27T09:05:46.852Z,1016.12
2023-01-27T09:06:46.899Z,1016.14
2023-01-27T09:07:46.857Z,1016.15
2023-01-27T09:08:46.815Z,1016.16
2023-01-27T09:09:46.825Z,1016.19
2023-01-27T09:10:46.806Z,1016.23
2023-01-27T09:11:46.852Z,1016.17
2023-01-27T09:12:46.778Z,1016.20
2023-01-27T09:13:46.776Z,1016.22
2023-01-27T09:14:46.766Z,1016.21
2023-01-27T09:15:46.746Z,1016.30
2023-01-27T09:16:46.735Z,1016.31
2023-01-27T09:17:46.779Z,1016.25
2023-01-27T09:18:46.712Z,1016.22
2023-01-27T09:19:46.694Z,1016.21
2023-01-27T09:20:46.687Z,1016.21
2023-01-27T09:21:46.688Z,1016.26
2023-01-27T09:22:46.713Z,1016.27
2023-01-27T09:23:46.669Z,1016.27
2023-01-27T09:24:46.619Z,1016.26
2023-01-27T09:25:46.601Z,1016.25
2023-01-27T09:26:46.671Z,1016.26
2023-01-27T09:27:46.647Z,1016.27
2023-01-27T09:28:46.605Z,1016.30
2023-01-27T09:29:46.614Z,1016.24
2023-01-27T09:30:46.804Z,1016.27
2023-01-27T09:31:46.649Z,1016.24
2023-01-27T09:32:46.585Z,1016.23
2023-01-27T09:33:46.537Z,1016.24
2023-01-27T09:34:46.533Z,1016.21
2023-01-27T09:35:46.523Z,1016.22
2023-01-27T09:36:46.498Z,1016.21
2023-01-27T09:37:46.535Z,1016.17
2023-01-27T09:38:46.473Z,1016.21
2023-01-27T09:39:46.458Z,1016.19
2023-01-27T09:40:46.455Z,1016.22
2023-01-27T09:41:46.431Z,1016.22
2023-01-27T09:42:46.467Z,1016.20
2023-01-27T09:43:46.428Z,1016.26
2023-01-27T09:44:46.423Z,1016.17
2023-01-27T09:45:46.393Z,1016.22
2023-01-27T09:46:46.422Z,1016.23
2023-01-27T09:47:46.453Z,1016.19
2023-01-27T09:48:46.374Z,1016.21
2023-01-27T09:49:46.369Z,1016.19
2023-01-27T09:50:46.342Z,1016.17
2023-01-27T09:51:46.380Z,1016.18
2023-01-27T09:52:48.117Z,1016.15
2023-01-27T09:53:46.285Z,1016.14
2023-01-27T09:54:46.283Z,1016.19
2023-01-27T09:55:46.275Z,1016.16
2023-01-27T09:56:46.278Z,1016.20
2023-01-27T09:57:46.323Z,1016.21
2023-01-27T09:58:46.247Z,1016.22
2023-01-27T09:59:46.232Z,1016.22
2023-01-27T10:00:46.250Z,1016.21
2023-01-27T10:01:46.236Z,1016.22
2023-01-27T10:02:46.247Z,1016.23
2023-01-27T10:03:46.195Z,1016.23
2023-01-27T10:04:46.267Z,1016.22
2023-01-27T10:05:46.178Z,1016.15
2023-01-27T10:06:46.153Z,1016.18
2023-01-27T10:07:46.208Z,1016.16
2023-01-27T10:08:46.140Z,1016.13
2023-01-27T10:09:46.134Z,1016.14
2023-01-27T10:10:46.132Z,1016.18
2023-01-27T10:11:46.162Z,1016.21
2023-01-27T10:12:46.131Z,1016.17
2023-01-27T10:13:46.104Z,1016.12
2023-01-27T10:14:46.097Z,1016.14
2023-01-27T10:15:46.088Z,1016.15
2023-01-27T10:16:46.041Z,1016.17
2023-01-27T10:17:46.061Z,1016.20
2023-01-27T10:18:46.021Z,1016.22
2023-01-27T10:19:45.990Z,1016.22
2023-01-27T10:20:45.982Z,1016.20
2023-01-27T10:21:45.977Z,1016.23
2023-01-27T10:22:46.022Z,1016.24
2023-01-27T10:23:46.020Z,1016.23
2023-01-27T10:24:45.966Z,1016.20
2023-01-27T10:25:45.941Z,1016.21
2023-01-27T10:26:45.927Z,1016.22
2023-01-27T10:27:45.972Z,1016.19
2023-01-27T10:28:45.907Z,1016.18
2023-01-27T10:29:45.983Z,1016.16
2023-01-27T10:30:45.907Z,1016.20
2023-01-27T10:31:45.908Z,1016.18
2023-01-27T10:32:45.943Z,1016.18
2023-01-27T10:33:45.867Z,1016.22
2023-01-27T10:34:45.835Z,1016.14
2023-01-27T10:35:45.834Z,1016.08
2023-01-27T10:36:45.814Z,1016.13
2023-01-27T10:37:45.865Z,1016.09
2023-01-27T10:38:45.796Z,1016.08
2023-01-27T10:39:45.770Z,1016.04
2023-01-27T10:40:45.786Z,1016.05
2023-01-27T10:41:45.761Z,1016.04
2023-01-27T10:42:45.793Z,1016.00
2023-01-27T10:43:45.742Z,1016.04
2023-01-27T10:44:45.725Z,1016.07
2023-01-27T10:45:45.772Z,1016.10
2023-01-27T10:46:45.780Z,1016.12
2023-01-27T10:47:45.705Z,1016.14
2023-01-27T10:48:45.694Z,1016.17
2023-01-27T10:49:45.673Z,1016.18
2023-01-27T10:50:45.654Z,1016.22
2023-01-27T10:51:45.632Z,1016.27
2023-01-27T10:52:45.679Z,1016.23
2023-01-27T10:53:45.647Z,1016.29
2023-01-27T10:54:45.630Z,1016.31
2023-01-27T10:55:45.606Z,1016.29
2023-01-27T10:56:45.587Z,1016.36
2023-01-27T10:57:45.624Z,1016.35
2023-01-27T10:58:45.575Z,1016.35
2023-01-27T10:59:55.248Z,1016.34
2023-01-27T11:01:18.126Z,1016.29
2023-01-27T11:01:46.578Z,1016.27
2023-01-27T11:02:45.558Z,1016.26
2023-01-27T11:03:45.524Z,1016.29
2023-01-27T11:04:45.526Z,1016.25
2023-01-27T11:05:45.478Z,1016.27
2023-01-27T11:06:45.491Z,1016.27
2023-01-27T11:07:45.515Z,1016.27
2023-01-27T11:08:45.443Z,1016.26
2023-01-27T11:09:45.449Z,1016.27
2023-01-27T11:10:45.420Z,1016.29
2023-01-27T11:11:45.453Z,1016.29
2023-01-27T11:12:45.457Z,1016.26
2023-01-27T11:13:45.372Z,1016.26
2023-01-27T11:14:45.365Z,1016.27
2023-01-27T11:15:45.355Z,1016.25
2023-01-27T11:16:45.436Z,1016.22
2023-01-27T11:17:45.398Z,1016.25
2023-01-27T11:18:45.336Z,1016.25
2023-01-27T11:19:45.371Z,1016.28
2023-01-27T11:20:45.321Z,1016.27
2023-01-27T11:21:52.959Z,1016.31
2023-01-27T11:22:46.350Z,1016.27
2023-01-27T11:23:45.290Z,1016.28
2023-01-27T11:24:45.286Z,1016.27
2023-01-27T11:25:45.269Z,1016.28
2023-01-27T11:26:45.259Z,1016.26
2023-01-27T11:27:45.284Z,1016.26
2023-01-27T11:28:45.224Z,1016.26
2023-01-27T11:29:45.251Z,1016.22
2023-01-27T11:30:45.253Z,1016.26
2023-01-27T11:31:45.213Z,1016.22
2023-01-27T11:32:45.226Z,1016.25
2023-01-27T11:33:45.159Z,1016.29
2023-01-27T11:34:45.162Z,1016.25
2023-01-27T11:35:45.147Z,1016.29
2023-01-27T11:36:45.152Z,1016.28
2023-01-27T11:37:45.166Z,1016.28
2023-01-27T11:38:45.149Z,1016.28
2023-01-27T11:39:45.087Z,1016.24
2023-01-27T11:40:45.102Z,1016.24
2023-01-27T11:41:45.069Z,1016.19
2023-01-27T11:42:45.087Z,1016.21
2023-01-27T11:43:45.037Z,1016.15
2023-01-27T11:44:45.054Z,1016.19
2023-01-27T11:45:45.076Z,1016.19
2023-01-27T11:46:45.033Z,1016.21
2023-01-27T11:47:45.044Z,1016.23
2023-01-27T11:48:44.999Z,1016.19
2023-01-27T11:49:44.984Z,1016.22
2023-01-27T11:50:44.980Z,1016.23
2023-01-27T11:51:44.958Z,1016.22
2023-01-27T11:52:45.015Z,1016.21
2023-01-27T11:53:44.944Z,1016.23
2023-01-27T11:54:44.932Z,1016.22
2023-01-27T11:55:44.907Z,1016.19
2023-01-27T11:56:44.919Z,1016.20
2023-01-27T11:57:44.952Z,1016.17
2023-01-27T11:58:44.918Z,1016.17
2023-01-27T11:59:44.861Z,1016.21
2023-01-27T12:00:47.661Z,1016.22
2023-01-27T12:01:44.898Z,1016.23
2023-01-27T12:02:45.036Z,1016.20
2023-01-27T12:03:44.890Z,1016.25
2023-01-27T12:04:44.862Z,1016.20
2023-01-27T12:05:44.814Z,1016.16
2023-01-27T12:06:44.786Z,1016.21
2023-01-27T12:07:44.790Z,1016.20